Time;durP1;ratioP1;P1;durP2;ratioP2;P2;SDS_P1;SDS_P2;PMS_P1;PMS_P2;Temp;Humidity;BMP_temperature;BMP_pressure;BME280_temperature;BME280_humidity;BME280_pressure;Samples;Min_cycle;Max_cycle;Signal;HPM_P1;HPM_P2
2022/04/18 00:01:37;;;;;;;3.43;2.50;;;6.60;87.80;;;;;;5030247;28;20606;-69
2022/04/18 00:04:03;;;;;;;4.10;2.43;;;6.60;88.00;;;;;;5030191;28;20423;-69
2022/04/18 00:06:29;;;;;;;4.70;3.13;;;6.60;87.80;;;;;;5030122;28;20200;-69
2022/04/18 00:08:54;;;;;;;3.90;2.93;;;6.50;88.90;;;;;;5029947;28;20536;-69
2022/04/18 00:11:20;;;;;;;3.83;2.90;;;6.50;88.80;;;;;;5030213;28;20279;-69
2022/04/18 00:13:45;;;;;;;5.30;3.20;;;6.50;90.10;;;;;;5012225;28;20180;-69
2022/04/18 00:16:11;;;;;;;4.20;3.63;;;6.40;90.50;;;;;;5029908;28;20223;-70
2022/04/18 00:18:37;;;;;;;5.33;3.40;;;6.30;90.80;;;;;;5029924;28;20187;-70
2022/04/18 00:21:02;;;;;;;4.07;3.67;;;6.20;91.70;;;;;;5012104;28;20209;-70
2022/04/18 00:23:28;;;;;;;3.90;3.60;;;6.10;91.60;;;;;;5012003;28;20661;-70
2022/04/18 00:25:54;;;;;;;5.90;3.23;;;6.10;92.10;;;;;;5029608;28;20584;-70
2022/04/18 00:28:19;;;;;;;3.67;2.77;;;6.00;91.90;;;;;;5029701;28;20189;-70
2022/04/18 00:30:45;;;;;;;5.00;2.70;;;6.00;91.40;;;;;;5011735;28;20188;-70
2022/04/18 00:33:10;;;;;;;4.10;3.50;;;6.00;91.80;;;;;;5029641;28;20737;-71
2022/04/18 00:35:36;;;;;;;5.13;4.50;;;5.90;92.00;;;;;;5011822;28;20553;-70
2022/04/18 00:38:02;;;;;;;7.60;5.43;;;5.90;92.60;;;;;;5029521;28;20207;-70
2022/04/18 00:40:28;;;;;;;6.30;4.30;;;5.80;92.60;;;;;;5029549;28;20302;-70
2022/04/18 00:43:06;;;;;;;4.47;4.10;;;5.80;93.00;;;;;;5029590;28;20821;-70
2022/04/18 00:45:32;;;;;;;6.13;4.23;;;5.80;93.10;;;;;;5029370;28;20263;-70
2022/04/18 00:47:58;;;;;;;5.20;3.97;;;5.70;93.00;;;;;;5029259;28;20533;-70
2022/04/18 00:50:26;;;;;;;4.00;3.50;;;5.70;93.60;;;;;;5029242;28;20467;-70
2022/04/18 00:52:53;;;;;;;6.17;3.90;;;5.70;94.10;;;;;;5011197;28;20215;-70
2022/04/18 00:55:20;;;;;;;4.47;3.50;;;5.60;94.90;;;;;;5028866;28;20413;-70
2022/04/18 00:57:47;;;;;;;6.00;3.87;;;5.40;95.80;;;;;;5029108;28;20449;-70
2022/04/18 01:00:14;;;;;;;6.83;3.90;;;5.30;96.40;;;;;;5029153;28;20423;-70
2022/04/18 01:02:40;;;;;;;6.67;4.80;;;5.20;97.10;;;;;;5029122;28;20485;-70
2022/04/18 01:05:06;;;;;;;3.90;3.57;;;5.10;97.50;;;;;;5029156;28;20840;-70
2022/04/18 01:07:34;;;;;;;4.60;3.50;;;5.00;97.60;;;;;;5010980;28;20471;-70
2022/04/18 01:10:02;;;;;;;5.20;3.97;;;5.00;97.80;;;;;;5029102;28;20966;-71
2022/04/18 01:12:28;;;;;;;4.47;3.40;;;5.00;98.00;;;;;;5029075;28;20423;-70
2022/04/18 01:14:54;;;;;;;5.30;4.40;;;4.90;98.40;;;;;;5029149;28;20989;-70
2022/04/18 01:17:19;;;;;;;5.70;4.83;;;4.90;98.30;;;;;;5011467;28;20223;-68
2022/04/18 01:19:45;;;;;;;3.70;3.30;;;4.70;98.60;;;;;;5029298;28;20636;-70
2022/04/18 01:22:12;;;;;;;8.80;4.67;;;4.70;98.90;;;;;;5029256;28;20620;-69
2022/04/18 01:30:09;;;;;;;6.13;4.00;;;4.60;99.10;;;;;;5029447;28;20462;-69
2022/04/18 01:32:35;;;;;;;4.67;3.80;;;4.60;98.90;;;;;;5011778;28;20418;-70
2022/04/18 01:35:01;;;;;;;8.17;4.13;;;4.50;99.20;;;;;;5029700;28;20609;-69
2022/04/18 01:37:26;;;;;;;5.77;3.37;;;4.60;99.40;;;;;;5029591;28;20239;-69
2022/04/18 01:39:52;;;;;;;5.90;4.10;;;4.60;99.70;;;;;;5011847;28;20231;-70
2022/04/18 01:42:18;;;;;;;5.53;3.50;;;4.50;99.90;;;;;;5029615;28;20184;-69
2022/04/18 01:44:43;;;;;;;6.20;3.97;;;4.60;99.90;;;;;;5029582;28;20316;-69
2022/04/18 01:47:09;;;;;;;3.97;3.57;;;4.50;99.90;;;;;;5029457;28;20212;-69
2022/04/18 01:49:34;;;;;;;9.83;3.20;;;4.50;99.90;;;;;;5029559;28;20208;-70
2022/04/18 01:52:00;;;;;;;4.57;3.30;;;4.50;99.90;;;;;;5029389;28;20646;-70
2022/04/18 01:54:26;;;;;;;7.67;3.63;;;4.40;99.90;;;;;;5011298;28;20216;-70
2022/04/18 01:56:51;;;;;;;4.03;3.47;;;4.30;99.90;;;;;;5029186;28;20223;-69
2022/04/18 01:59:17;;;;;;;4.30;3.47;;;4.30;99.90;;;;;;5029156;28;20184;-70
2022/04/18 02:01:43;;;;;;;4.40;3.67;;;4.20;99.90;;;;;;5029368;28;20609;-70
2022/04/18 02:04:09;;;;;;;9.20;3.77;;;4.10;99.90;;;;;;5029567;28;20192;-70
2022/04/18 02:06:34;;;;;;;4.47;4.07;;;4.00;99.90;;;;;;5031796;28;20467;-70
2022/04/18 02:09:00;;;;;;;6.47;4.30;;;4.00;99.90;;;;;;5034246;28;20535;-70
2022/04/18 02:11:26;;;;;;;5.77;4.10;;;4.00;99.90;;;;;;5033261;28;20180;-70
2022/04/18 02:13:52;;;;;;;4.47;3.47;;;4.00;99.90;;;;;;5033203;28;20424;-70
2022/04/18 02:16:19;;;;;;;4.03;3.63;;;3.90;99.90;;;;;;5015334;28;20203;-69
2022/04/18 02:18:45;;;;;;;6.25;3.40;;;3.90;99.90;;;;;;5033655;28;20838;-69
2022/04/18 02:21:12;;;;;;;5.37;3.70;;;3.80;99.90;;;;;;5033893;28;20254;-69
2022/04/18 02:23:38;;;;;;;4.83;3.93;;;3.80;99.90;;;;;;5015867;28;20423;-69
2022/04/18 02:26:04;;;;;;;5.53;3.30;;;3.80;99.90;;;;;;5014640;28;20445;-69
2022/04/18 02:28:31;;;;;;;7.13;4.20;;;3.80;99.90;;;;;;5032195;28;20457;-70
2022/04/18 02:30:57;;;;;;;5.75;3.38;;;3.80;99.90;;;;;;5032401;28;20178;-70
2022/04/18 02:33:23;;;;;;;4.20;3.80;;;3.70;99.90;;;;;;5032530;28;20177;-69
2022/04/18 02:35:49;;;;;;;5.93;3.77;;;3.70;99.90;;;;;;5032420;28;20903;-69
2022/04/18 02:38:15;;;;;;;5.23;3.67;;;3.80;99.90;;;;;;5014303;28;20542;-69
2022/04/18 02:40:41;;;;;;;3.70;3.40;;;3.70;99.90;;;;;;5032332;28;20180;-69
2022/04/18 02:43:09;;;;;;;7.00;4.53;;;3.60;99.90;;;;;;5032285;28;20917;-70
2022/04/18 02:45:35;;;;;;;4.70;4.20;;;3.40;99.90;;;;;;5032413;28;20555;-69
2022/04/18 02:48:01;;;;;;;4.43;4.00;;;3.40;99.90;;;;;;5032614;28;20442;-69
2022/04/18 02:50:27;;;;;;;6.28;5.07;;;3.40;99.90;;;;;;5033013;28;20234;-70
2022/04/18 02:52:53;;;;;;;5.70;3.77;;;3.40;99.90;;;;;;5032797;28;20552;-70
2022/04/18 02:55:19;;;;;;;5.77;4.50;;;3.40;99.90;;;;;;5032933;28;20907;-70
2022/04/18 02:57:45;;;;;;;6.22;4.88;;;3.30;99.90;;;;;;5032810;28;20445;-70
2022/04/18 03:00:12;;;;;;;5.33;4.00;;;3.30;99.90;;;;;;5032386;28;20291;-70
2022/04/18 03:02:39;;;;;;;7.13;4.33;;;3.20;99.90;;;;;;5032153;28;20421;-70
2022/04/18 03:05:07;;;;;;;3.97;3.60;;;3.20;99.90;;;;;;5032019;28;20991;-70
2022/04/18 03:07:33;;;;;;;6.20;3.80;;;3.10;99.90;;;;;;5031078;28;20591;-70
2022/04/18 03:09:59;;;;;;;3.90;3.47;;;3.20;99.90;;;;;;5030889;28;20473;-70
2022/04/18 03:12:25;;;;;;;4.47;3.57;;;3.30;99.90;;;;;;5031067;28;20426;-69
2022/04/18 03:14:52;;;;;;;5.88;3.47;;;3.30;99.90;;;;;;5031016;28;20419;-70
2022/04/18 03:17:18;;;;;;;7.33;4.40;;;3.30;99.90;;;;;;5030568;28;20628;-69
2022/04/18 03:19:44;;;;;;;4.20;3.40;;;3.30;99.90;;;;;;5030898;28;20471;-70
2022/04/18 03:22:10;;;;;;;3.87;3.43;;;3.30;99.90;;;;;;5030717;28;20218;-69
2022/04/18 03:24:36;;;;;;;6.13;3.93;;;3.30;99.90;;;;;;5026091;28;121424;-69
2022/04/18 03:27:03;;;;;;;4.10;3.60;;;3.20;99.90;;;;;;5031059;28;20207;-69
2022/04/18 03:29:29;;;;;;;4.25;3.85;;;3.20;99.90;;;;;;5031812;28;20217;-69
2022/04/18 03:31:55;;;;;;;5.23;4.03;;;3.20;99.90;;;;;;5031891;28;20194;-69
2022/04/18 03:34:21;;;;;;;5.60;3.57;;;3.20;99.90;;;;;;5031864;28;20472;-69
2022/04/18 03:42:16;;;;;;;4.30;3.88;;;3.00;99.90;;;;;;5031564;28;20196;-70
2022/04/18 03:44:43;;;;;;;6.57;3.88;;;3.00;99.90;;;;;;5031581;28;20194;-70
2022/04/18 03:47:10;;;;;;;5.72;4.53;;;3.00;99.90;;;;;;5031479;28;20306;-70
2022/04/18 03:49:36;;;;;;;4.50;4.10;;;3.00;99.90;;;;;;5031560;28;20218;-69
2022/04/18 03:52:02;;;;;;;4.50;4.10;;;3.00;99.90;;;;;;5031553;28;20210;-73
2022/04/18 03:54:27;;;;;;;4.17;3.77;;;3.00;99.90;;;;;;5031568;28;20179;-72
2022/04/18 03:56:53;;;;;;;4.87;3.63;;;3.10;99.90;;;;;;5031243;28;20576;-73
2022/04/18 03:59:18;;;;;;;4.63;4.07;;;3.10;99.90;;;;;;5031027;28;20195;-71
2022/04/18 04:01:44;;;;;;;4.43;4.03;;;3.10;99.90;;;;;;5030737;28;20186;-72
2022/04/18 04:04:10;;;;;;;9.00;4.63;;;3.10;99.90;;;;;;5030676;28;20186;-71
2022/04/18 04:06:35;;;;;;;12.20;4.53;;;3.00;99.90;;;;;;5030603;28;20202;-71
2022/04/18 04:09:01;;;;;;;7.30;3.70;;;3.00;99.90;;;;;;5030459;28;20265;-71
2022/04/18 04:11:27;;;;;;;5.53;4.17;;;3.00;99.90;;;;;;5012452;28;20214;-71
2022/04/18 04:13:52;;;;;;;4.83;3.90;;;2.90;99.90;;;;;;5030336;28;20187;-71
2022/04/18 04:16:18;;;;;;;5.00;4.50;;;2.90;99.90;;;;;;5030509;28;20202;-71
2022/04/18 04:18:44;;;;;;;4.27;3.87;;;2.90;99.90;;;;;;5030130;28;20503;-70
2022/04/18 04:21:10;;;;;;;5.03;4.53;;;2.80;99.90;;;;;;5030177;28;20903;-70
2022/04/18 04:23:35;;;;;;;6.07;4.60;;;2.60;99.90;;;;;;5029931;28;20661;-70
2022/04/18 04:26:01;;;;;;;5.43;4.17;;;2.40;99.90;;;;;;5029861;28;20233;-70
2022/04/18 04:28:28;;;;;;;5.18;4.13;;;2.40;99.90;;;;;;5029243;28;20196;-70
2022/04/18 04:30:53;;;;;;;4.50;4.10;;;2.20;99.90;;;;;;5030008;28;20872;-70
2022/04/18 04:33:19;;;;;;;4.73;4.00;;;2.10;99.90;;;;;;5029844;28;20182;-71
2022/04/18 04:35:44;;;;;;;4.30;3.90;;;2.10;99.90;;;;;;5029839;28;20198;-71
2022/04/18 04:38:10;;;;;;;4.23;3.83;;;2.30;99.90;;;;;;5029724;28;20197;-71
2022/04/18 04:40:37;;;;;;;6.90;4.37;;;2.50;99.90;;;;;;5029794;28;20183;-70
2022/04/18 04:43:03;;;;;;;4.07;3.72;;;2.60;99.90;;;;;;5029556;28;20920;-71
2022/04/18 04:45:28;;;;;;;4.63;3.90;;;2.70;99.90;;;;;;5011643;28;20277;-70
2022/04/18 04:47:54;;;;;;;6.03;4.17;;;2.80;99.90;;;;;;5029421;28;20936;-70
2022/04/18 04:50:20;;;;;;;8.27;4.60;;;2.80;99.90;;;;;;5029455;28;20219;-71
2022/04/18 04:52:46;;;;;;;6.90;4.32;;;2.90;99.90;;;;;;5029429;28;20687;-70
2022/04/18 04:55:13;;;;;;;12.80;8.17;;;2.80;99.90;;;;;;5029488;28;20297;-70
2022/04/18 04:57:38;;;;;;;11.88;7.63;;;2.80;99.90;;;;;;5029304;28;20202;-69
2022/04/18 05:00:04;;;;;;;7.60;4.93;;;2.80;99.90;;;;;;5029258;28;20264;-70
2022/04/18 05:02:30;;;;;;;5.38;4.88;;;2.70;99.90;;;;;;5029207;28;20571;-69
2022/04/18 05:04:56;;;;;;;8.50;5.60;;;2.80;99.90;;;;;;5011284;28;20685;-70
2022/04/18 05:07:21;;;;;;;5.90;4.90;;;2.80;99.90;;;;;;5029115;28;20205;-70
2022/04/18 05:09:47;;;;;;;6.80;4.73;;;2.80;99.90;;;;;;5028973;28;20212;-71
2022/04/18 05:12:12;;;;;;;5.60;4.80;;;2.80;99.90;;;;;;5028953;28;20640;-70
2022/04/18 05:14:38;;;;;;;7.53;4.20;;;2.80;99.90;;;;;;5029011;28;20212;-70
2022/04/18 05:17:04;;;;;;;6.10;4.30;;;2.80;99.90;;;;;;5028659;28;20288;-71
2022/04/18 05:19:30;;;;;;;7.13;4.53;;;2.90;99.90;;;;;;5011226;28;20184;-70
2022/04/18 05:21:55;;;;;;;6.50;3.93;;;3.00;99.90;;;;;;5028784;28;20546;-70
2022/04/18 05:24:21;;;;;;;7.00;3.60;;;3.10;99.90;;;;;;5028662;28;20194;-70
2022/04/18 05:26:46;;;;;;;4.50;3.63;;;3.20;99.90;;;;;;5028738;28;20675;-71
2022/04/18 05:29:12;;;;;;;3.90;3.60;;;3.40;99.90;;;;;;5028696;28;20318;-70
2022/04/18 05:31:38;;;;;;;7.30;3.80;;;3.60;99.90;;;;;;5028665;28;20186;-71
2022/04/18 05:34:04;;;;;;;5.37;3.70;;;3.80;99.90;;;;;;5028678;28;20421;-71
2022/04/18 05:36:29;;;;;;;8.73;5.07;;;4.10;99.90;;;;;;5028643;28;20201;-70
2022/04/18 05:38:55;;;;;;;6.37;5.20;;;4.30;99.90;;;;;;5028578;28;20182;-72
2022/04/18 05:41:21;;;;;;;5.73;4.57;;;4.40;99.90;;;;;;5010696;28;20666;-70
2022/04/18 05:43:49;;;;;;;5.83;5.23;;;4.30;99.90;;;;;;5010655;28;20426;-70
2022/04/18 05:46:15;;;;;;;4.70;4.20;;;4.50;99.90;;;;;;5028524;28;21244;-69
2022/04/18 05:48:41;;;;;;;5.53;4.00;;;4.60;99.90;;;;;;5028653;28;20516;-70
2022/04/18 05:51:07;;;;;;;5.30;4.07;;;4.90;99.90;;;;;;5030268;28;20433;-70
2022/04/18 05:53:34;;;;;;;6.23;4.40;;;5.20;99.90;;;;;;5029191;28;20422;-70
2022/04/18 05:56:00;;;;;;;5.67;4.60;;;5.50;99.90;;;;;;5028828;28;20542;-70
2022/04/18 05:58:26;;;;;;;7.47;3.97;;;5.80;99.70;;;;;;5028430;28;20427;-70
2022/04/18 06:00:52;;;;;;;3.87;3.40;;;6.00;98.80;;;;;;5028436;28;20430;-70
2022/04/18 06:03:18;;;;;;;5.50;4.10;;;6.20;97.80;;;;;;5028512;28;20497;-70
2022/04/18 06:05:44;;;;;;;6.37;5.00;;;6.50;97.40;;;;;;5028347;28;20184;-70
2022/04/18 06:08:09;;;;;;;9.27;5.93;;;6.70;98.00;;;;;;5028253;28;20220;-69
2022/04/18 06:10:41;;;;;;;5.93;4.40;;;7.00;96.40;;;;;;5028674;28;20211;-70
2022/04/18 06:13:10;;;;;;;4.10;3.77;;;7.20;95.30;;;;;;5028225;28;20307;-69
2022/04/18 06:15:36;;;;;;;4.70;3.77;;;7.50;95.10;;;;;;5028286;28;20407;-69
2022/04/18 06:18:02;;;;;;;5.00;4.00;;;7.80;94.00;;;;;;5010469;28;20974;-69
2022/04/18 06:20:28;;;;;;;4.43;4.00;;;8.10;93.40;;;;;;5028224;28;20420;-69
2022/04/18 06:22:53;;;;;;;4.40;3.63;;;8.30;94.00;;;;;;5029018;28;20212;-69
2022/04/18 06:25:19;;;;;;;4.10;3.63;;;8.40;92.50;;;;;;5028046;28;20200;-70
2022/04/18 06:27:44;;;;;;;7.17;3.47;;;8.60;91.00;;;;;;5010271;28;20287;-70
2022/04/18 06:30:10;;;;;;;7.07;3.90;;;8.70;89.70;;;;;;5027875;28;20291;-69
2022/04/18 06:32:37;;;;;;;7.13;3.73;;;8.90;89.80;;;;;;5028298;28;20192;-69
2022/04/18 06:35:04;;;;;;;4.60;3.53;;;9.10;89.20;;;;;;5010078;28;20268;-69
2022/04/18 06:37:31;;;;;;;8.33;3.80;;;9.30;87.00;;;;;;5027857;28;20509;-70
2022/04/18 06:39:57;;;;;;;5.57;4.30;;;9.40;85.90;;;;;;5028006;28;20435;-70
2022/04/18 06:42:23;;;;;;;6.00;4.17;;;9.60;85.90;;;;;;5027953;28;20426;-70
2022/04/18 06:44:49;;;;;;;5.17;4.17;;;9.70;87.60;;;;;;5027982;28;20429;-70
2022/04/18 06:47:14;;;;;;;5.93;4.37;;;9.90;85.40;;;;;;5027864;28;20583;-69
2022/04/18 06:49:40;;;;;;;7.67;5.87;;;10.00;84.00;;;;;;5027922;28;20235;-70
2022/04/18 06:52:06;;;;;;;7.23;5.07;;;10.20;83.60;;;;;;5028790;28;20268;-70
2022/04/18 06:54:32;;;;;;;6.07;4.07;;;10.20;83.50;;;;;;5013518;28;20184;-70
2022/04/18 06:57:01;;;;;;;7.30;4.80;;;10.40;84.10;;;;;;5031411;28;20409;-70
2022/04/18 06:59:30;;;;;;;4.57;4.03;;;10.50;83.20;;;;;;5031468;28;20664;-70
2022/04/18 07:01:57;;;;;;;4.00;3.37;;;10.50;81.00;;;;;;5031903;28;20438;-69
2022/04/18 07:04:23;;;;;;;4.03;3.63;;;10.80;82.00;;;;;;5031344;28;20440;-70
2022/04/18 07:06:49;;;;;;;4.80;3.40;;;10.90;80.00;;;;;;5031244;28;20940;-70
2022/04/18 07:09:15;;;;;;;5.13;4.03;;;10.90;79.60;;;;;;5031292;28;20209;-70
2022/04/18 07:11:42;;;;;;;5.60;4.07;;;11.20;79.70;;;;;;5031447;28;20415;-70
2022/04/18 07:14:08;;;;;;;6.03;3.53;;;11.30;79.10;;;;;;5031476;28;20192;-70
2022/04/18 07:16:34;;;;;;;3.43;3.13;;;11.40;78.00;;;;;;5013325;28;20988;-70
2022/04/18 07:19:00;;;;;;;4.07;3.70;;;11.50;79.00;;;;;;5032713;28;20420;-70
2022/04/18 07:21:26;;;;;;;7.10;3.83;;;11.60;78.10;;;;;;5032753;28;20185;-70
2022/04/18 07:23:52;;;;;;;4.50;3.83;;;11.70;77.10;;;;;;5032751;28;20195;-70
2022/04/18 07:26:19;;;;;;;5.03;3.80;;;11.80;75.90;;;;;;5031714;28;20492;-70
2022/04/18 07:28:46;;;;;;;4.90;4.30;;;12.00;76.00;;;;;;5031045;28;20455;-70
2022/04/18 07:31:12;;;;;;;14.70;4.20;;;12.00;77.50;;;;;;5012606;28;20425;-70
2022/04/18 07:33:38;;;;;;;4.67;3.57;;;11.90;76.20;;;;;;5030361;28;20416;-70
2022/04/18 07:36:03;;;;;;;4.30;4.00;;;12.10;77.20;;;;;;5029509;28;20194;-70
2022/04/18 07:41:33;;;;;;;4.87;4.37;;;12.50;79.00;;;;;;5029883;28;20467;-70
2022/04/18 07:44:01;;;;;;;4.30;3.87;;;12.70;78.40;;;;;;5029447;28;20415;-70
2022/04/18 07:46:27;;;;;;;4.10;3.20;;;12.80;79.90;;;;;;5029454;28;20470;-70
2022/04/18 07:48:53;;;;;;;6.07;3.63;;;12.90;77.20;;;;;;5030619;28;20496;-70
2022/04/18 07:51:32;;;;;;;10.50;3.73;;;13.20;79.20;;;;;;5029640;28;20487;-70
2022/04/18 07:53:58;;;;;;;4.20;3.33;;;13.40;77.80;;;;;;5029157;28;20187;-70
2022/04/18 07:56:24;;;;;;;8.23;3.77;;;13.60;78.50;;;;;;5029137;28;20586;-70
2022/04/18 07:58:51;;;;;;;9.00;3.70;;;13.80;75.10;;;;;;5029165;28;20512;-70
2022/04/18 08:01:18;;;;;;;4.03;3.67;;;14.00;75.10;;;;;;5029048;28;20788;-70
2022/04/18 08:03:43;;;;;;;5.20;3.27;;;14.20;74.90;;;;;;5027883;28;20430;-70
2022/04/18 08:06:09;;;;;;;5.70;4.03;;;14.20;75.10;;;;;;5029271;28;20449;-70
2022/04/18 08:08:35;;;;;;;3.37;3.07;;;14.30;67.90;;;;;;5029288;28;20193;-70
2022/04/18 08:11:01;;;;;;;4.27;3.83;;;14.30;68.40;;;;;;5028782;28;20907;-70
2022/04/18 08:13:27;;;;;;;5.50;4.10;;;14.30;68.60;;;;;;5028785;28;20178;-70
2022/04/18 08:15:54;;;;;;;4.03;3.73;;;14.40;68.30;;;;;;5028881;28;20418;-70
2022/04/18 08:18:19;;;;;;;4.30;3.80;;;14.50;68.20;;;;;;5028949;28;20415;-70
2022/04/18 08:20:45;;;;;;;7.80;3.30;;;14.50;66.00;;;;;;5028788;28;20473;-70
2022/04/18 08:23:11;;;;;;;7.17;3.60;;;14.60;68.00;;;;;;5028679;28;20179;-70
2022/04/18 08:25:40;;;;;;;3.83;3.30;;;14.60;70.10;;;;;;5028505;28;20228;-70
2022/04/18 08:28:05;;;;;;;4.60;3.20;;;14.80;71.70;;;;;;5028525;28;20950;-70
2022/04/18 08:30:31;;;;;;;5.50;3.70;;;15.00;69.70;;;;;;5028482;28;20503;-70
2022/04/18 08:32:57;;;;;;;7.03;3.80;;;15.20;71.20;;;;;;5028416;28;20222;-70
2022/04/18 08:35:23;;;;;;;3.57;3.27;;;15.30;69.00;;;;;;5028540;28;20180;-70
2022/04/18 08:37:48;;;;;;;5.80;3.47;;;15.20;66.00;;;;;;5028143;28;20279;-70
2022/04/18 08:40:14;;;;;;;8.37;3.67;;;15.40;63.50;;;;;;5028406;28;20184;-70
2022/04/18 08:42:41;;;;;;;5.47;2.97;;;15.60;64.10;;;;;;5028325;28;20687;-70
2022/04/18 08:45:10;;;;;;;2.80;2.50;;;15.00;56.00;;;;;;5028392;28;20176;-70
2022/04/18 08:53:11;;;;;;;3.83;2.47;;;16.10;54.60;;;;;;5028348;28;20435;-70
2022/04/18 08:55:37;;;;;;;3.30;2.97;;;16.30;52.30;;;;;;5027933;28;20416;-70
2022/04/18 08:58:04;;;;;;;3.60;2.57;;;16.50;51.90;;;;;;5028123;28;20444;-70
2022/04/18 09:00:30;;;;;;;2.70;2.27;;;16.90;53.00;;;;;;5028027;28;20954;-70
2022/04/18 09:02:56;;;;;;;3.70;2.30;;;17.30;51.00;;;;;;5028007;28;20456;-70
2022/04/18 09:05:22;;;;;;;3.80;2.60;;;17.20;48.80;;;;;;5009836;28;20188;-70
2022/04/18 09:08:02;;;;;;;2.77;2.40;;;17.60;49.90;;;;;;5009862;28;20301;-71
2022/04/18 09:10:28;;;;;;;3.50;2.73;;;17.70;47.60;;;;;;5027686;28;20217;-70
2022/04/18 09:13:01;;;;;;;4.30;3.67;;;17.20;45.20;;;;;;5027729;28;20843;-71
2022/04/18 09:15:35;;;;;;;3.63;2.97;;;17.00;45.10;;;;;;5027338;28;20409;-70
2022/04/18 09:18:17;;;;;;;4.00;3.20;;;17.00;45.60;;;;;;5027523;28;20987;-70
2022/04/18 09:20:43;;;;;;;4.17;2.57;;;16.50;44.70;;;;;;5027641;28;20451;-70
2022/04/18 09:23:20;;;;;;;3.30;3.00;;;17.10;46.40;;;;;;5027986;28;20454;-71
2022/04/18 09:25:46;;;;;;;4.40;3.13;;;17.20;43.90;;;;;;5029768;28;20553;-69
2022/04/18 09:28:12;;;;;;;3.17;2.70;;;17.60;44.70;;;;;;5027240;28;20554;-70
2022/04/18 09:30:37;;;;;;;3.63;2.93;;;17.30;43.70;;;;;;5027434;28;20223;-70
2022/04/18 09:33:06;;;;;;;3.90;3.00;;;17.30;44.10;;;;;;5027584;28;20195;-70
2022/04/18 09:35:32;;;;;;;9.40;3.17;;;16.90;44.60;;;;;;5027475;28;20612;-69
2022/04/18 09:38:06;;;;;;;3.33;3.03;;;17.50;45.80;;;;;;5027488;28;20825;-69
2022/04/18 09:40:33;;;;;;;4.33;3.00;;;17.70;44.70;;;;;;5027926;28;20440;-71
2022/04/18 09:42:59;;;;;;;4.87;3.07;;;17.80;44.00;;;;;;5027661;28;20432;-71
2022/04/18 09:45:24;;;;;;;5.70;3.70;;;18.00;44.40;;;;;;5027678;28;20434;-71
2022/04/18 09:48:00;;;;;;;3.77;3.10;;;17.80;45.20;;;;;;5027687;28;20204;-71
2022/04/18 09:53:20;;;;;;;3.93;2.87;;;18.20;43.00;;;;;;5027611;28;20469;-71
2022/04/18 09:55:47;;;;;;;4.00;2.90;;;18.70;42.50;;;;;;5027541;28;20499;-71
2022/04/18 09:58:13;;;;;;;3.93;3.53;;;19.30;42.80;;;;;;5027598;28;20435;-71
2022/04/18 10:00:40;;;;;;;3.50;2.90;;;19.30;41.00;;;;;;5010146;28;20425;-71
2022/04/18 10:03:07;;;;;;;3.20;2.87;;;19.20;43.00;;;;;;5027880;28;20849;-71
2022/04/18 10:05:33;;;;;;;6.23;3.50;;;19.50;42.00;;;;;;5009833;28;20573;-71
2022/04/18 10:08:03;;;;;;;3.17;2.73;;;18.90;40.60;;;;;;5009875;28;20932;-71
2022/04/18 10:10:32;;;;;;;3.07;2.77;;;18.70;40.30;;;;;;5027837;28;21116;-71
2022/04/18 10:12:57;;;;;;;5.20;3.07;;;18.50;39.80;;;;;;5028055;28;20920;-71
2022/04/18 10:15:24;;;;;;;5.17;4.67;;;18.60;40.50;;;;;;5010381;28;20512;-71
2022/04/18 10:17:51;;;;;;;3.93;3.53;;;19.20;41.60;;;;;;5028388;28;20211;-71
2022/04/18 10:20:47;;;;;;;3.50;3.20;;;19.50;41.20;;;;;;5028669;28;20418;-71
2022/04/18 10:23:50;;;;;;;6.63;4.90;;;19.40;40.80;;;;;;5028695;28;20425;-71
2022/04/18 10:26:34;;;;;;;3.57;3.23;;;19.60;43.20;;;;;;5010446;28;21012;-71
2022/04/18 10:29:09;;;;;;;5.20;3.87;;;19.60;39.70;;;;;;5032500;28;21087;-71
2022/04/18 10:31:40;;;;;;;4.33;3.70;;;20.00;38.80;;;;;;5014546;28;20455;-71
2022/04/18 10:34:07;;;;;;;4.70;3.23;;;20.30;39.10;;;;;;5032671;28;20578;-71
2022/04/18 10:36:34;;;;;;;3.70;2.93;;;20.70;41.70;;;;;;5032279;28;20559;-71
2022/04/18 10:39:05;;;;;;;3.40;3.10;;;20.30;38.10;;;;;;4997679;28;20441;-71
2022/04/18 10:41:39;;;;;;;4.03;3.10;;;20.10;38.60;;;;;;5031965;28;20555;-71
2022/04/18 10:44:15;;;;;;;4.00;3.20;;;20.40;38.40;;;;;;5031661;28;20474;-71
2022/04/18 10:47:03;;;;;;;4.60;3.10;;;19.70;36.60;;;;;;5031452;28;20470;-71
2022/04/18 10:49:31;;;;;;;5.90;3.40;;;19.60;38.30;;;;;;5031499;28;20457;-71
2022/04/18 10:52:05;;;;;;;3.00;2.70;;;19.40;36.70;;;;;;5031512;28;20424;-71
2022/04/18 10:54:31;;;;;;;3.67;2.87;;;19.80;37.70;;;;;;5031544;28;20414;-71
2022/04/18 10:57:06;;;;;;;4.80;2.93;;;20.20;35.80;;;;;;5013085;28;20823;-71
2022/04/18 10:59:36;;;;;;;4.10;3.50;;;20.70;37.90;;;;;;5031270;28;20472;-71
2022/04/18 11:02:04;;;;;;;3.40;2.93;;;20.90;35.60;;;;;;5031012;28;20538;-71
2022/04/18 11:04:53;;;;;;;4.37;2.63;;;21.60;38.60;;;;;;5031287;28;20480;-71
2022/04/18 11:07:19;;;;;;;3.60;3.30;;;21.90;38.00;;;;;;5030845;28;20435;-71
2022/04/18 11:09:52;;;;;;;3.97;3.37;;;22.30;38.20;;;;;;5030790;28;20479;-71
2022/04/18 11:12:20;;;;;;;9.13;3.53;;;22.50;39.00;;;;;;5012923;28;20185;-71
2022/04/18 11:14:49;;;;;;;6.73;3.93;;;22.40;36.50;;;;;;5031198;28;20454;-71
2022/04/18 11:17:29;;;;;;;7.60;5.67;;;22.50;37.90;;;;;;5030822;28;20518;-71
2022/04/18 11:19:56;;;;;;;7.00;3.87;;;22.40;34.50;;;;;;5013766;28;20425;-72
2022/04/18 11:22:23;;;;;;;5.13;3.30;;;22.50;37.10;;;;;;5030540;28;20457;-71
2022/04/18 11:24:51;;;;;;;5.80;3.40;;;22.50;37.30;;;;;;5012647;28;21194;-71
2022/04/18 11:27:22;;;;;;;4.03;3.07;;;22.30;36.30;;;;;;5030453;28;20440;-71
2022/04/18 11:30:00;;;;;;;3.87;3.20;;;22.30;34.50;;;;;;5030479;28;20461;-71
2022/04/18 11:32:37;;;;;;;3.20;2.90;;;22.00;32.90;;;;;;5030455;28;20780;-71
2022/04/18 11:35:06;;;;;;;3.60;3.30;;;22.10;34.40;;;;;;5030644;28;20979;-71
2022/04/18 11:37:34;;;;;;;5.17;3.30;;;22.20;36.30;;;;;;5030168;28;20439;-71
2022/04/18 11:40:06;;;;;;;3.33;2.73;;;22.50;35.70;;;;;;5012352;28;20447;-71
2022/04/18 11:42:33;;;;;;;3.40;3.10;;;22.40;33.40;;;;;;5012572;28;20485;-71
2022/04/18 11:45:02;;;;;;;3.30;2.80;;;21.80;33.20;;;;;;5030301;28;20920;-71
2022/04/18 11:47:29;;;;;;;6.07;3.80;;;21.90;33.90;;;;;;5011852;28;20442;-71
2022/04/18 11:49:58;;;;;;;3.97;3.30;;;22.40;34.00;;;;;;5030305;28;21378;-71
2022/04/18 11:52:26;;;;;;;3.90;2.90;;;22.50;35.20;;;;;;5030193;28;20473;-71
2022/04/18 11:55:14;;;;;;;3.93;3.10;;;22.90;36.40;;;;;;5031265;28;20447;-71
2022/04/18 11:57:42;;;;;;;3.17;2.73;;;22.90;35.00;;;;;;5016527;28;20446;-71
2022/04/18 12:00:14;;;;;;;5.03;3.43;;;23.00;35.30;;;;;;5016746;28;20433;-71
2022/04/18 12:08:17;;;;;;;4.47;3.23;;;22.80;33.80;;;;;;5031356;28;20438;-70
2022/04/18 12:10:45;;;;;;;5.90;4.40;;;23.00;32.70;;;;;;5031281;28;20463;-71
2022/04/18 12:13:13;;;;;;;5.87;4.37;;;23.20;35.50;;;;;;5030455;28;20415;-71
2022/04/18 12:15:40;;;;;;;4.77;4.13;;;23.00;33.40;;;;;;5030316;28;20462;-71
2022/04/18 12:18:13;;;;;;;5.67;4.40;;;23.00;32.40;;;;;;5029924;28;20482;-71
2022/04/18 12:20:46;;;;;;;8.30;4.60;;;22.80;33.70;;;;;;5029943;28;20426;-71
2022/04/18 12:23:23;;;;;;;3.70;3.40;;;23.00;34.20;;;;;;5030096;28;20964;-71
2022/04/18 12:25:54;;;;;;;5.43;4.47;;;23.00;34.70;;;;;;5029767;28;20518;-71
2022/04/18 12:28:23;;;;;;;4.23;3.83;;;23.10;35.00;;;;;;5029927;28;20416;-72
2022/04/18 12:30:49;;;;;;;8.50;3.87;;;23.10;34.60;;;;;;5029456;28;21020;-71
2022/04/18 12:33:24;;;;;;;4.60;3.67;;;22.90;34.90;;;;;;5029563;28;20441;-71
2022/04/18 12:35:52;;;;;;;5.97;3.40;;;22.50;33.50;;;;;;5029443;28;20498;-71
2022/04/18 12:38:39;;;;;;;3.30;3.03;;;22.40;35.10;;;;;;5011100;28;20447;-71
2022/04/18 12:41:04;;;;;;;4.10;2.90;;;22.20;35.30;;;;;;5028916;28;20441;-72
2022/04/18 12:43:35;;;;;;;5.20;3.20;;;22.50;32.50;;;;;;5030378;28;20485;-72
2022/04/18 12:46:02;;;;;;;5.17;3.17;;;22.60;33.90;;;;;;5029087;28;20271;-72
2022/04/18 12:48:29;;;;;;;4.03;3.40;;;22.80;33.60;;;;;;5029477;28;20481;-71
2022/04/18 12:50:57;;;;;;;4.20;2.87;;;22.80;35.00;;;;;;5028689;28;20498;-71
2022/04/18 12:53:53;;;;;;;8.50;3.30;;;22.80;34.90;;;;;;5029552;28;20921;-71
2022/04/18 12:56:24;;;;;;;3.87;3.10;;;22.60;33.90;;;;;;5029547;28;20450;-71
2022/04/18 12:59:03;;;;;;;3.60;3.00;;;22.40;35.30;;;;;;5029642;28;20454;-71
2022/04/18 13:01:32;;;;;;;3.57;3.20;;;22.60;35.60;;;;;;5030065;28;20411;-71
2022/04/18 13:03:59;;;;;;;3.20;2.90;;;22.50;35.80;;;;;;5029611;28;20453;-71
2022/04/18 13:06:26;;;;;;;4.13;3.13;;;22.50;33.70;;;;;;5011178;28;20447;-71
2022/04/18 13:09:03;;;;;;;7.03;3.00;;;22.60;35.20;;;;;;5028667;28;20471;-71
2022/04/18 13:12:02;;;;;;;4.77;3.53;;;22.50;33.90;;;;;;5028724;28;20426;-72
2022/04/18 13:14:28;;;;;;;3.50;3.07;;;22.30;33.80;;;;;;5028481;28;20415;-71
2022/04/18 13:17:08;;;;;;;7.37;3.30;;;22.30;33.70;;;;;;5010887;28;20530;-71
2022/04/18 13:19:35;;;;;;;3.60;3.30;;;22.30;33.40;;;;;;5028519;28;20191;-71
2022/04/18 13:22:01;;;;;;;5.23;3.50;;;21.90;33.50;;;;;;5028348;28;20497;-71
2022/04/18 13:24:26;;;;;;;3.07;2.77;;;22.10;34.60;;;;;;5028245;28;20490;-71